sensor_id;sensor_type;location;lat;lon;timestamp;pressure;altitude;pressure_sealevel;temperature;humidity
56402;BME280;42299;35.160;26.100;2023-05-21T00:00:46;100452.16;;;20.01;100.00
56402;BME280;42299;35.160;26.100;2023-05-21T00:02:10;100471.81;;;20.01;100.00
56402;BME280;42299;35.160;26.100;2023-05-21T00:03:35;100474.41;;;20.03;100.00
56402;BME280;42299;35.160;26.100;2023-05-21T00:05:01;100480.63;;;20.05;100.00
56402;BME280;42299;35.160;26.100;2023-05-21T00:06:24;100470.78;;;20.05;100.00
56402;BME280;42299;35.160;26.100;2023-05-21T00:07:47;100468.03;;;20.08;100.00
56402;BME280;42299;35.160;26.100;2023-05-21T00:09:13;100475.13;;;20.09;100.00
56402;BME280;42299;35.160;26.100;2023-05-21T00:10:35;100479.56;;;20.10;100.00
56402;BME280;42299;35.160;26.100;2023-05-21T00:11:56;100479.59;;;20.09;100.00
56402;BME280;42299;35.160;26.100;2023-05-21T00:13:20;100482.34;;;20.07;100.00
56402;BME280;42299;35.160;26.100;2023-05-21T00:14:42;100487.78;;;20.04;100.00
56402;BME280;42299;35.160;26.100;2023-05-21T00:16:04;100495.06;;;19.99;100.00
56402;BME280;42299;35.160;26.100;2023-05-21T00:17:25;100509.56;;;19.92;100.00
56402;BME280;42299;35.160;26.100;2023-05-21T00:18:48;100518.53;;;19.89;100.00
56402;BME280;42299;35.160;26.100;2023-05-21T00:20:11;100524.84;;;19.88;100.00
56402;BME280;42299;35.160;26.100;2023-05-21T00:21:34;100533.97;;;19.81;100.00
56402;BME280;42299;35.160;26.100;2023-05-21T00:22:55;100555.56;;;19.75;100.00
56402;BME280;42299;35.160;26.100;2023-05-21T00:24:17;100552.94;;;19.72;100.00
56402;BME280;42299;35.160;26.100;2023-05-21T00:25:40;100560.97;;;19.72;100.00
56402;BME280;42299;35.160;26.100;2023-05-21T00:27:01;100542.25;;;19.71;100.00
56402;BME280;42299;35.160;26.100;2023-05-21T00:28:25;100536.00;;;19.70;100.00
56402;BME280;42299;35.160;26.100;2023-05-21T00:29:47;100524.50;;;19.67;100.00
56402;BME280;42299;35.160;26.100;2023-05-21T00:31:10;100514.78;;;19.63;100.00
56402;BME280;42299;35.160;26.100;2023-05-21T00:32:32;100505.16;;;19.56;100.00
56402;BME280;42299;35.160;26.100;2023-05-21T00:33:54;100499.94;;;19.49;100.00
56402;BME280;42299;35.160;26.100;2023-05-21T00:35:17;100499.16;;;19.44;100.00
56402;BME280;42299;35.160;26.100;2023-05-21T00:36:39;100497.47;;;19.40;100.00
56402;BME280;42299;35.160;26.100;2023-05-21T00:38:05;100490.41;;;19.36;100.00
56402;BME280;42299;35.160;26.100;2023-05-21T00:39:27;100486.00;;;19.35;100.00
56402;BME280;42299;35.160;26.100;2023-05-21T00:40:50;100476.22;;;19.34;100.00
56402;BME280;42299;35.160;26.100;2023-05-21T00:42:12;100458.38;;;19.33;100.00
56402;BME280;42299;35.160;26.100;2023-05-21T00:43:39;100452.19;;;19.31;100.00
56402;BME280;42299;35.160;26.100;2023-05-21T00:45:02;100445.06;;;19.30;100.00
56402;BME280;42299;35.160;26.100;2023-05-21T00:46:23;100434.41;;;19.29;100.00
56402;BME280;42299;35.160;26.100;2023-05-21T00:47:48;100423.72;;;19.29;100.00
56402;BME280;42299;35.160;26.100;2023-05-21T00:49:14;100409.44;;;19.28;100.00
56402;BME280;42299;35.160;26.100;2023-05-21T00:50:35;100396.09;;;19.27;100.00
56402;BME280;42299;35.160;26.100;2023-05-21T00:51:59;100386.31;;;19.26;100.00
56402;BME280;42299;35.160;26.100;2023-05-21T00:53:21;100376.53;;;19.23;100.00
56402;BME280;42299;35.160;26.100;2023-05-21T00:54:43;100372.13;;;19.22;100.00
56402;BME280;42299;35.160;26.100;2023-05-21T00:56:05;100366.72;;;19.24;100.00
56402;BME280;42299;35.160;26.100;2023-05-21T00:57:28;100364.03;;;19.24;100.00
56402;BME280;42299;35.160;26.100;2023-05-21T00:58:55;100356.00;;;19.25;100.00
56402;BME280;42299;35.160;26.100;2023-05-21T01:00:19;100350.63;;;19.25;100.00
56402;BME280;42299;35.160;26.100;2023-05-21T01:01:42;100350.63;;;19.25;100.00
56402;BME280;42299;35.160;26.100;2023-05-21T01:03:05;100347.03;;;19.26;100.00
56402;BME280;42299;35.160;26.100;2023-05-21T01:04:28;100349.75;;;19.25;100.00
56402;BME280;42299;35.160;26.100;2023-05-21T01:05:51;100356.91;;;19.24;100.00
56402;BME280;42299;35.160;26.100;2023-05-21T01:07:19;100360.44;;;19.26;100.00
56402;BME280;42299;35.160;26.100;2023-05-21T01:08:42;100366.66;;;19.27;100.00
56402;BME280;42299;35.160;26.100;2023-05-21T01:10:06;100380.81;;;19.30;100.00
56402;BME280;42299;35.160;26.100;2023-05-21T01:11:36;100387.97;;;19.30;100.00
56402;BME280;42299;35.160;26.100;2023-05-21T01:12:59;100389.75;;;19.31;100.00
56402;BME280;42299;35.160;26.100;2023-05-21T01:14:23;100400.38;;;19.34;100.00
56402;BME280;42299;35.160;26.100;2023-05-21T01:15:48;100404.75;;;19.36;100.00
56402;BME280;42299;35.160;26.100;2023-05-21T01:17:09;100404.69;;;19.39;100.00
56402;BME280;42299;35.160;26.100;2023-05-21T01:18:33;100409.13;;;19.40;100.00
56402;BME280;42299;35.160;26.100;2023-05-21T01:19:57;100403.75;;;19.42;100.00
56402;BME280;42299;35.160;26.100;2023-05-21T01:21:20;100410.00;;;19.41;100.00
56402;BME280;42299;35.160;26.100;2023-05-21T01:22:53;100417.16;;;19.40;100.00
56402;BME280;42299;35.160;26.100;2023-05-21T01:24:18;100418.09;;;19.38;100.00
56402;BME280;42299;35.160;26.100;2023-05-21T01:25:40;100414.53;;;19.37;100.00
56402;BME280;42299;35.160;26.100;2023-05-21T01:27:03;100396.78;;;19.35;100.00
56402;BME280;42299;35.160;26.100;2023-05-21T01:28:27;100395.91;;;19.34;100.00
56402;BME280;42299;35.160;26.100;2023-05-21T01:29:49;100406.66;;;19.33;100.00
56402;BME280;42299;35.160;26.100;2023-05-21T01:31:20;100408.41;;;19.34;100.00
56402;BME280;42299;35.160;26.100;2023-05-21T01:32:47;100404.84;;;19.33;100.00
56402;BME280;42299;35.160;26.100;2023-05-21T01:34:11;100400.44;;;19.31;100.00
56402;BME280;42299;35.160;26.100;2023-05-21T01:35:36;100401.34;;;19.30;100.00
56402;BME280;42299;35.160;26.100;2023-05-21T01:37:11;100386.28;;;19.27;100.00
56402;BME280;42299;35.160;26.100;2023-05-21T01:38:39;100396.06;;;19.28;100.00
56402;BME280;42299;35.160;26.100;2023-05-21T01:40:07;100401.34;;;19.30;100.00
56402;BME280;42299;35.160;26.100;2023-05-21T01:41:32;100401.34;;;19.30;100.00
56402;BME280;42299;35.160;26.100;2023-05-21T01:42:56;100411.16;;;19.31;100.00
56402;BME280;42299;35.160;26.100;2023-05-21T01:44:20;100406.66;;;19.33;100.00
56402;BME280;42299;35.160;26.100;2023-05-21T01:45:43;100409.28;;;19.34;100.00
56402;BME280;42299;35.160;26.100;2023-05-21T01:47:07;100395.88;;;19.36;100.00
56402;BME280;42299;35.160;26.100;2023-05-21T01:48:29;100399.47;;;19.35;100.00
56402;BME280;42299;35.160;26.100;2023-05-21T01:49:53;100395.88;;;19.36;100.00
56402;BME280;42299;35.160;26.100;2023-05-21T01:51:14;100398.59;;;19.34;100.00
56402;BME280;42299;35.160;26.100;2023-05-21T01:52:37;100387.91;;;19.33;100.00
56402;BME280;42299;35.160;26.100;2023-05-21T01:54:01;100383.47;;;19.32;100.00
56402;BME280;42299;35.160;26.100;2023-05-21T01:55:24;100378.22;;;19.29;100.00
56402;BME280;42299;35.160;26.100;2023-05-21T01:56:46;100383.56;;;19.29;100.00
56402;BME280;42299;35.160;26.100;2023-05-21T01:58:09;100372.88;;;19.29;100.00
56402;BME280;42299;35.160;26.100;2023-05-21T01:59:32;100375.53;;;19.29;100.00
56402;BME280;42299;35.160;26.100;2023-05-21T02:00:53;100366.63;;;19.28;100.00
56402;BME280;42299;35.160;26.100;2023-05-21T02:02:16;100372.88;;;19.29;100.00
56402;BME280;42299;35.160;26.100;2023-05-21T02:03:37;100385.28;;;19.30;100.00
56402;BME280;42299;35.160;26.100;2023-05-21T02:05:00;100377.25;;;19.30;100.00
56402;BME280;42299;35.160;26.100;2023-05-21T02:06:23;100387.06;;;19.31;100.00
56402;BME280;42299;35.160;26.100;2023-05-21T02:07:46;100385.22;;;19.33;100.00
56402;BME280;42299;35.160;26.100;2023-05-21T02:09:09;100376.28;;;19.34;100.00
56402;BME280;42299;35.160;26.100;2023-05-21T02:10:32;100379.84;;;19.34;100.00
56402;BME280;42299;35.160;26.100;2023-05-21T02:11:54;100373.56;;;19.35;100.00
56402;BME280;42299;35.160;26.100;2023-05-21T02:13:16;100378.94;;;19.35;100.00
56402;BME280;42299;35.160;26.100;2023-05-21T02:14:40;100382.53;;;19.34;100.00
56402;BME280;42299;35.160;26.100;2023-05-21T02:16:02;100383.47;;;19.32;100.00
56402;BME280;42299;35.160;26.100;2023-05-21T02:17:24;100388.84;;;19.30;100.00
56402;BME280;42299;35.160;26.100;2023-05-21T02:18:46;100391.53;;;19.30;100.00
56402;BME280;42299;35.160;26.100;2023-05-21T02:20:11;100399.53;;;19.32;100.00
56402;BME280;42299;35.160;26.100;2023-05-21T02:21:34;100395.09;;;19.31;100.00
56402;BME280;42299;35.160;26.100;2023-05-21T02:22:56;100397.75;;;19.31;100.00
56402;BME280;42299;35.160;26.100;2023-05-21T02:24:20;100393.31;;;19.30;100.00
56402;BME280;42299;35.160;26.100;2023-05-21T02:25:44;100396.09;;;19.27;100.00
56402;BME280;42299;35.160;26.100;2023-05-21T02:27:06;100410.38;;;19.27;100.00
56402;BME280;42299;35.160;26.100;2023-05-21T02:28:27;100417.50;;;19.27;100.00
56402;BME280;42299;35.160;26.100;2023-05-21T02:29:52;100419.34;;;19.25;100.00
56402;BME280;42299;35.160;26.100;2023-05-21T02:31:15;100413.09;;;19.24;100.00
56402;BME280;42299;35.160;26.100;2023-05-21T02:32:36;100413.16;;;19.23;100.00
56402;BME280;42299;35.160;26.100;2023-05-21T02:33:59;100416.75;;;19.22;100.00
56402;BME280;42299;35.160;26.100;2023-05-21T02:35:21;100414.09;;;19.22;100.00
56402;BME280;42299;35.160;26.100;2023-05-21T02:36:42;100407.84;;;19.21;100.00
56402;BME280;42299;35.160;26.100;2023-05-21T02:38:08;100413.19;;;19.21;100.00
56402;BME280;42299;35.160;26.100;2023-05-21T02:39:31;100414.09;;;19.22;100.00
56402;BME280;42299;35.160;26.100;2023-05-21T02:40:54;100417.63;;;19.22;100.00
56402;BME280;42299;35.160;26.100;2023-05-21T02:42:15;100408.72;;;19.22;100.00
56402;BME280;42299;35.160;26.100;2023-05-21T02:43:38;100409.63;;;19.22;100.00
56402;BME280;42299;35.160;26.100;2023-05-21T02:44:59;100410.50;;;19.23;100.00
56402;BME280;42299;35.160;26.100;2023-05-21T02:46:21;100407.81;;;19.23;100.00
56402;BME280;42299;35.160;26.100;2023-05-21T02:47:46;100413.09;;;19.24;100.00
56402;BME280;42299;35.160;26.100;2023-05-21T02:49:12;100403.28;;;19.25;100.00
56402;BME280;42299;35.160;26.100;2023-05-21T02:50:36;100401.44;;;19.27;100.00
56402;BME280;42299;35.160;26.100;2023-05-21T02:51:59;100409.44;;;19.28;100.00
56402;BME280;42299;35.160;26.100;2023-05-21T02:53:20;100407.59;;;19.30;100.00
56402;BME280;42299;35.160;26.100;2023-05-21T02:54:45;100416.47;;;19.32;100.00
56402;BME280;42299;35.160;26.100;2023-05-21T02:56:07;100426.28;;;19.32;100.00
56402;BME280;42299;35.160;26.100;2023-05-21T02:57:29;100426.25;;;19.33;100.00
56402;BME280;42299;35.160;26.100;2023-05-21T02:58:52;100420.91;;;19.33;100.00
56402;BME280;42299;35.160;26.100;2023-05-21T03:00:15;100428.06;;;19.33;100.00
56402;BME280;42299;35.160;26.100;2023-05-21T03:01:36;100429.84;;;19.32;100.00
56402;BME280;42299;35.160;26.100;2023-05-21T03:03:01;100437.00;;;19.32;100.00
56402;BME280;42299;35.160;26.100;2023-05-21T03:04:23;100438.81;;;19.31;100.00
56402;BME280;42299;35.160;26.100;2023-05-21T03:05:45;100440.56;;;19.32;100.00
56402;BME280;42299;35.160;26.100;2023-05-21T03:07:08;100439.63;;;19.35;100.00
56402;BME280;42299;35.160;26.100;2023-05-21T03:08:29;100448.47;;;19.37;100.00
56402;BME280;42299;35.160;26.100;2023-05-21T03:09:54;100446.59;;;19.40;100.00
56402;BME280;42299;35.160;26.100;2023-05-21T03:11:17;100456.34;;;19.43;99.42
56402;BME280;42299;35.160;26.100;2023-05-21T03:12:39;100469.69;;;19.46;98.62
56402;BME280;42299;35.160;26.100;2023-05-21T03:14:01;100472.31;;;19.49;98.12
56402;BME280;42299;35.160;26.100;2023-05-21T03:15:23;100478.44;;;19.53;98.46
56402;BME280;42299;35.160;26.100;2023-05-21T03:16:44;100487.38;;;19.53;99.11
56402;BME280;42299;35.160;26.100;2023-05-21T03:18:07;100487.34;;;19.55;99.87
56402;BME280;42299;35.160;26.100;2023-05-21T03:19:28;100483.75;;;19.56;100.00
56402;BME280;42299;35.160;26.100;2023-05-21T03:20:55;100484.56;;;19.58;100.00
56402;BME280;42299;35.160;26.100;2023-05-21T03:22:18;100480.97;;;19.59;100.00
56402;BME280;42299;35.160;26.100;2023-05-21T03:23:40;100482.69;;;19.61;100.00
56402;BME280;42299;35.160;26.100;2023-05-21T03:25:05;100464.88;;;19.60;100.00
56402;BME280;42299;35.160;26.100;2023-05-21T03:26:26;100467.53;;;19.60;100.00
56402;BME280;42299;35.160;26.100;2023-05-21T03:27:50;100471.09;;;19.61;100.00
56402;BME280;42299;35.160;26.100;2023-05-21T03:29:31;100466.69;;;19.58;100.00
56402;BME280;42299;35.160;26.100;2023-05-21T03:30:54;100472.06;;;19.58;100.00
56402;BME280;42299;35.160;26.100;2023-05-21T03:32:28;100472.06;;;19.58;100.00
56402;BME280;42299;35.160;26.100;2023-05-21T03:33:50;100473.84;;;19.58;100.00
56402;BME280;42299;35.160;26.100;2023-05-21T03:35:22;100471.19;;;19.56;100.00
56402;BME280;42299;35.160;26.100;2023-05-21T03:36:45;100472.16;;;19.55;100.00
56402;BME280;42299;35.160;26.100;2023-05-21T03:38:09;100472.16;;;19.55;100.00
56402;BME280;42299;35.160;26.100;2023-05-21T03:39:31;100462.38;;;19.53;100.00
56402;BME280;42299;35.160;26.100;2023-05-21T03:40:55;100459.78;;;19.49;100.00
56402;BME280;42299;35.160;26.100;2023-05-21T03:42:17;100458.97;;;19.44;100.00
56402;BME280;42299;35.160;26.100;2023-05-21T03:43:43;100451.16;;;19.37;100.00
56402;BME280;42299;35.160;26.100;2023-05-21T03:45:06;100453.16;;;19.29;100.00
56402;BME280;42299;35.160;26.100;2023-05-21T03:47:05;100455.28;;;19.15;100.00
56402;BME280;42299;35.160;26.100;2023-05-21T03:48:29;100452.78;;;19.07;100.00
56402;BME280;42299;35.160;26.100;2023-05-21T03:49:50;100454.78;;;18.97;100.00
56402;BME280;42299;35.160;26.100;2023-05-21T03:51:13;100447.00;;;18.88;100.00
56402;BME280;42299;35.160;26.100;2023-05-21T03:52:36;100447.25;;;18.78;100.00
56402;BME280;42299;35.160;26.100;2023-05-21T03:53:59;100440.34;;;18.67;100.00
56402;BME280;42299;35.160;26.100;2023-05-21T03:55:21;100440.53;;;18.60;100.00
56402;BME280;42299;35.160;26.100;2023-05-21T03:56:45;100432.63;;;18.52;100.00
56402;BME280;42299;35.160;26.100;2023-05-21T03:58:07;100430.06;;;18.48;100.00
56402;BME280;42299;35.160;26.100;2023-05-21T03:59:30;100422.09;;;18.45;100.00
56402;BME280;42299;35.160;26.100;2023-05-21T04:00:52;100413.25;;;18.43;100.00
56402;BME280;42299;35.160;26.100;2023-05-21T04:02:15;100403.50;;;18.40;100.00
56402;BME280;42299;35.160;26.100;2023-05-21T04:03:38;100401.81;;;18.38;100.00
56402;BME280;42299;35.160;26.100;2023-05-21T04:05:01;100396.50;;;18.35;100.00
56402;BME280;42299;35.160;26.100;2023-05-21T04:06:23;100391.22;;;18.31;100.00
56402;BME280;42299;35.160;26.100;2023-05-21T04:07:45;100393.13;;;18.26;100.00
56402;BME280;42299;35.160;26.100;2023-05-21T04:09:08;100386.97;;;18.23;100.00
56402;BME280;42299;35.160;26.100;2023-05-21T04:10:29;100399.47;;;18.21;100.00
56402;BME280;42299;35.160;26.100;2023-05-21T04:11:53;100399.50;;;18.19;100.00
56402;BME280;42299;35.160;26.100;2023-05-21T04:13:16;100399.50;;;18.19;100.00
56402;BME280;42299;35.160;26.100;2023-05-21T04:14:37;100388.81;;;18.19;100.00
56402;BME280;42299;35.160;26.100;2023-05-21T04:15:59;100394.25;;;18.16;100.00
56402;BME280;42299;35.160;26.100;2023-05-21T04:17:21;100380.97;;;18.12;100.00
56402;BME280;42299;35.160;26.100;2023-05-21T04:18:46;100374.94;;;18.04;100.00
56402;BME280;42299;35.160;26.100;2023-05-21T04:20:10;100369.84;;;17.91;100.00
56402;BME280;42299;35.160;26.100;2023-05-21T04:21:33;100367.31;;;17.84;100.00
56402;BME280;42299;35.160;26.100;2023-05-21T04:22:55;100366.47;;;17.82;100.00
56402;BME280;42299;35.160;26.100;2023-05-21T04:24:17;100359.38;;;17.81;100.00
56402;BME280;42299;35.160;26.100;2023-05-21T04:25:44;100354.03;;;17.81;100.00
56402;BME280;42299;35.160;26.100;2023-05-21T04:27:12;100350.47;;;17.80;100.00
56402;BME280;42299;35.160;26.100;2023-05-21T04:28:36;100341.56;;;17.80;100.00
56402;BME280;42299;35.160;26.100;2023-05-21T04:30:04;100332.75;;;17.78;100.00
56402;BME280;42299;35.160;26.100;2023-05-21T04:31:29;100321.22;;;17.74;100.00
56402;BME280;42299;35.160;26.100;2023-05-21T04:32:50;100309.69;;;17.72;100.00
56402;BME280;42299;35.160;26.100;2023-05-21T04:34:14;100305.22;;;17.73;100.00
56402;BME280;42299;35.160;26.100;2023-05-21T04:35:37;100311.53;;;17.70;100.00
56402;BME280;42299;35.160;26.100;2023-05-21T04:37:04;100299.94;;;17.71;100.00
56402;BME280;42299;35.160;26.100;2023-05-21T04:38:27;100294.56;;;17.73;100.00
56402;BME280;42299;35.160;26.100;2023-05-21T04:39:48;100285.63;;;17.75;100.00
56402;BME280;42299;35.160;26.100;2023-05-21T04:41:12;100282.00;;;17.78;100.00
56402;BME280;42299;35.160;26.100;2023-05-21T04:42:39;100283.69;;;17.82;100.00
56402;BME280;42299;35.160;26.100;2023-05-21T04:44:01;100281.94;;;17.81;100.00
56402;BME280;42299;35.160;26.100;2023-05-21T04:45:26;100274.81;;;17.80;100.00
56402;BME280;42299;35.160;26.100;2023-05-21T04:46:49;100274.81;;;17.80;100.00
56402;BME280;42299;35.160;26.100;2023-05-21T04:48:12;100281.03;;;17.82;100.00
56402;BME280;42299;35.160;26.100;2023-05-21T04:49:35;100286.41;;;17.79;100.00
56402;BME280;42299;35.160;26.100;2023-05-21T04:50:57;100299.88;;;17.74;100.00
56402;BME280;42299;35.160;26.100;2023-05-21T04:52:19;100300.00;;;17.68;100.00
56402;BME280;42299;35.160;26.100;2023-05-21T04:53:44;100293.00;;;17.63;100.00
56402;BME280;42299;35.160;26.100;2023-05-21T04:55:08;100283.31;;;17.56;100.00
56402;BME280;42299;35.160;26.100;2023-05-21T04:56:30;100284.22;;;17.54;100.00
56402;BME280;42299;35.160;26.100;2023-05-21T04:57:54;100282.44;;;17.55;100.00
56402;BME280;42299;35.160;26.100;2023-05-21T04:59:17;100274.53;;;17.52;100.00
56402;BME280;42299;35.160;26.100;2023-05-21T05:00:40;100269.22;;;17.50;100.00
56402;BME280;42299;35.160;26.100;2023-05-21T05:02:05;100259.34;;;17.52;100.00
56402;BME280;42299;35.160;26.100;2023-05-21T05:03:28;100248.59;;;17.59;100.00
56402;BME280;42299;35.160;26.100;2023-05-21T05:04:49;100252.03;;;17.65;100.00
56402;BME280;42299;35.160;26.100;2023-05-21T05:06:13;100249.25;;;17.70;100.00
56402;BME280;42299;35.160;26.100;2023-05-21T05:07:37;100253.59;;;17.74;100.00
56402;BME280;42299;35.160;26.100;2023-05-21T05:08:58;100256.25;;;17.75;100.00
56402;BME280;42299;35.160;26.100;2023-05-21T05:10:20;100267.72;;;17.79;100.00
56402;BME280;42299;35.160;26.100;2023-05-21T05:11:43;100271.34;;;17.78;100.00
56402;BME280;42299;35.160;26.100;2023-05-21T05:13:07;100261.53;;;17.78;100.00
56402;BME280;42299;35.160;26.100;2023-05-21T05:14:29;100264.13;;;17.80;100.00
56402;BME280;42299;35.160;26.100;2023-05-21T05:15:52;100266.78;;;17.81;100.00
56402;BME280;42299;35.160;26.100;2023-05-21T05:17:14;100259.69;;;17.80;100.00
56402;BME280;42299;35.160;26.100;2023-05-21T05:18:37;100264.13;;;17.81;100.00
56402;BME280;42299;35.160;26.100;2023-05-21T05:19:58;100271.22;;;17.82;100.00
56402;BME280;42299;35.160;26.100;2023-05-21T05:21:22;100275.63;;;17.85;100.00
56402;BME280;42299;35.160;26.100;2023-05-21T05:22:43;100276.38;;;17.91;100.00
56402;BME280;42299;35.160;26.100;2023-05-21T05:24:07;100270.88;;;17.98;100.00
56402;BME280;42299;35.160;26.100;2023-05-21T05:25:29;100273.44;;;18.02;100.00
56402;BME280;42299;35.160;26.100;2023-05-21T05:26:51;100261.75;;;18.06;100.00
56402;BME280;42299;35.160;26.100;2023-05-21T05:28:16;100251.03;;;18.09;100.00
56402;BME280;42299;35.160;26.100;2023-05-21T05:29:39;100249.13;;;18.14;100.00
56402;BME280;42299;35.160;26.100;2023-05-21T05:31:02;100228.56;;;18.18;100.00
56402;BME280;42299;35.160;26.100;2023-05-21T05:32:26;100228.50;;;18.19;100.00
56402;BME280;42299;35.160;26.100;2023-05-21T05:33:48;100215.13;;;18.21;100.00
56402;BME280;42299;35.160;26.100;2023-05-21T05:35:11;100207.03;;;18.24;100.00
56402;BME280;42299;35.160;26.100;2023-05-21T05:36:32;100214.19;;;18.23;100.00
56402;BME280;42299;35.160;26.100;2023-05-21T05:37:57;100225.78;;;18.22;100.00
56402;BME280;42299;35.160;26.100;2023-05-21T05:39:18;100222.28;;;18.19;100.00
56402;BME280;42299;35.160;26.100;2023-05-21T05:40:42;100217.06;;;18.14;100.00
56402;BME280;42299;35.160;26.100;2023-05-21T05:42:04;100223.28;;;18.15;100.00
56402;BME280;42299;35.160;26.100;2023-05-21T05:43:27;100217.94;;;18.15;100.00
56402;BME280;42299;35.160;26.100;2023-05-21T05:44:52;100212.63;;;18.13;100.00
56402;BME280;42299;35.160;26.100;2023-05-21T05:46:14;100202.78;;;18.15;100.00
56402;BME280;42299;35.160;26.100;2023-05-21T05:47:37;100202.63;;;18.21;100.00
56402;BME280;42299;35.160;26.100;2023-05-21T05:49:00;100196.22;;;18.28;100.00
56402;BME280;42299;35.160;26.100;2023-05-21T05:50:22;100210.31;;;18.35;100.00
56402;BME280;42299;35.160;26.100;2023-05-21T05:51:44;100220.91;;;18.38;100.00
56402;BME280;42299;35.160;26.100;2023-05-21T05:53:05;100223.56;;;18.40;100.00
56402;BME280;42299;35.160;26.100;2023-05-21T05:54:29;100227.91;;;18.44;100.00
56402;BME280;42299;35.160;26.100;2023-05-21T05:55:52;100224.25;;;18.48;100.00
56402;BME280;42299;35.160;26.100;2023-05-21T05:57:14;100232.19;;;18.51;100.00
56402;BME280;42299;35.160;26.100;2023-05-21T05:58:41;100231.34;;;18.49;100.00
56402;BME280;42299;35.160;26.100;2023-05-21T06:00:07;100230.38;;;18.51;100.00
56402;BME280;42299;35.160;26.100;2023-05-21T06:01:33;100242.81;;;18.55;100.00
56402;BME280;42299;35.160;26.100;2023-05-21T06:02:55;100244.50;;;18.58;100.00
56402;BME280;42299;35.160;26.100;2023-05-21T06:04:18;100240.00;;;18.60;100.00
56402;BME280;42299;35.160;26.100;2023-05-21T06:05:42;100243.56;;;18.60;100.00
56402;BME280;42299;35.160;26.100;2023-05-21T06:07:04;100251.59;;;18.59;100.00
56402;BME280;42299;35.160;26.100;2023-05-21T06:08:26;100265.88;;;18.58;100.00
56402;BME280;42299;35.160;26.100;2023-05-21T06:09:48;100258.75;;;18.58;100.00
56402;BME280;42299;35.160;26.100;2023-05-21T06:11:10;100267.59;;;18.62;100.00
56402;BME280;42299;35.160;26.100;2023-05-21T06:12:33;100276.47;;;18.64;100.00
56402;BME280;42299;35.160;26.100;2023-05-21T06:13:56;100279.97;;;18.64;100.00
56402;BME280;42299;35.160;26.100;2023-05-21T06:15:20;100287.97;;;18.66;100.00
56402;BME280;42299;35.160;26.100;2023-05-21T06:16:43;100292.41;;;18.67;100.00
56402;BME280;42299;35.160;26.100;2023-05-21T06:18:06;100302.19;;;18.68;100.00
56402;BME280;42299;35.160;26.100;2023-05-21T06:19:31;100303.03;;;18.70;100.00
56402;BME280;42299;35.160;26.100;2023-05-21T06:20:52;100318.22;;;18.68;100.00
56402;BME280;42299;35.160;26.100;2023-05-21T06:22:17;100325.38;;;18.67;100.00
56402;BME280;42299;35.160;26.100;2023-05-21T06:23:38;100328.09;;;18.64;100.00
56402;BME280;42299;35.160;26.100;2023-05-21T06:25:01;100332.63;;;18.62;100.00
56402;BME280;42299;35.160;26.100;2023-05-21T06:26:24;100338.03;;;18.59;100.00
56402;BME280;42299;35.160;26.100;2023-05-21T06:27:47;100335.44;;;18.55;100.00
56402;BME280;42299;35.160;26.100;2023-05-21T06:29:15;100330.16;;;18.52;100.00
56402;BME280;42299;35.160;26.100;2023-05-21T06:30:40;100329.34;;;18.50;100.00
56402;BME280;42299;35.160;26.100;2023-05-21T06:32:03;100324.91;;;18.49;100.00
56402;BME280;42299;35.160;26.100;2023-05-21T06:33:25;100323.19;;;18.46;100.00
56402;BME280;42299;35.160;26.100;2023-05-21T06:34:48;100325.06;;;18.43;100.00
56402;BME280;42299;35.160;26.100;2023-05-21T06:36:11;100338.41;;;18.44;100.00
56402;BME280;42299;35.160;26.100;2023-05-21T06:37:34;100333.00;;;18.46;100.00
56402;BME280;42299;35.160;26.100;2023-05-21T06:38:57;100326.72;;;18.47;100.00
56402;BME280;42299;35.160;26.100;2023-05-21T06:40:19;100302.63;;;18.48;100.00
56402;BME280;42299;35.160;26.100;2023-05-21T06:41:43;100291.03;;;18.49;100.00
56402;BME280;42299;35.160;26.100;2023-05-21T06:43:34;100268.75;;;18.50;100.00
56402;BME280;42299;35.160;26.100;2023-05-21T06:45:17;100249.09;;;18.51;100.00
56402;BME280;42299;35.160;26.100;2023-05-21T06:46:40;100241.94;;;18.52;100.00
56402;BME280;42299;35.160;26.100;2023-05-21T06:48:03;100248.16;;;18.52;100.00
56402;BME280;42299;35.160;26.100;2023-05-21T06:49:26;100242.81;;;18.54;100.00
56402;BME280;42299;35.160;26.100;2023-05-21T06:50:47;100245.44;;;18.57;100.00
56402;BME280;42299;35.160;26.100;2023-05-21T06:52:09;100243.59;;;18.59;100.00
56402;BME280;42299;35.160;26.100;2023-05-21T06:53:32;100243.56;;;18.60;100.00
56402;BME280;42299;35.160;26.100;2023-05-21T06:54:54;100234.69;;;18.58;100.00
56402;BME280;42299;35.160;26.100;2023-05-21T06:56:19;100227.59;;;18.57;100.00
56402;BME280;42299;35.160;26.100;2023-05-21T06:57:41;100223.19;;;18.53;100.00
56402;BME280;42299;35.160;26.100;2023-05-21T06:59:03;100232.19;;;18.51;100.00
56402;BME280;42299;35.160;26.100;2023-05-21T07:00:26;100245.59;;;18.49;100.00
56402;BME280;42299;35.160;26.100;2023-05-21T07:01:49;100245.59;;;18.49;100.00
56402;BME280;42299;35.160;26.100;2023-05-21T07:03:11;100230.44;;;18.50;100.00
56402;BME280;42299;35.160;26.100;2023-05-21T07:04:34;100230.31;;;18.56;100.00
56402;BME280;42299;35.160;26.100;2023-05-21T07:05:56;100235.41;;;18.65;100.00